sensor_id;sensor_type;location;lat;lon;timestamp;P1;durP1;ratioP1;P2;durP2;ratioP2
24685;SDS011;12804;51.176;4.452;2023-05-10T00:01:37;20.45;;;13.70;;
24685;SDS011;12804;51.176;4.452;2023-05-10T00:04:03;22.63;;;14.23;;
24685;SDS011;12804;51.176;4.452;2023-05-10T00:06:29;22.63;;;14.98;;
24685;SDS011;12804;51.176;4.452;2023-05-10T00:08:55;24.02;;;15.13;;
24685;SDS011;12804;51.176;4.452;2023-05-10T00:11:21;22.42;;;15.38;;
24685;SDS011;12804;51.176;4.452;2023-05-10T00:13:47;24.27;;;15.45;;
24685;SDS011;12804;51.176;4.452;2023-05-10T00:16:13;21.27;;;15.85;;
24685;SDS011;12804;51.176;4.452;2023-05-10T00:18:39;25.10;;;15.02;;
24685;SDS011;12804;51.176;4.452;2023-05-10T00:21:05;21.80;;;14.20;;
24685;SDS011;12804;51.176;4.452;2023-05-10T00:23:31;25.80;;;15.43;;
24685;SDS011;12804;51.176;4.452;2023-05-10T00:25:57;23.33;;;14.88;;
24685;SDS011;12804;51.176;4.452;2023-05-10T00:28:23;28.75;;;15.98;;
24685;SDS011;12804;51.176;4.452;2023-05-10T00:30:49;23.50;;;14.85;;
24685;SDS011;12804;51.176;4.452;2023-05-10T00:33:14;26.35;;;14.88;;
24685;SDS011;12804;51.176;4.452;2023-05-10T00:35:40;22.42;;;14.88;;
24685;SDS011;12804;51.176;4.452;2023-05-10T00:38:08;21.15;;;13.88;;
24685;SDS011;12804;51.176;4.452;2023-05-10T00:40:35;23.52;;;14.85;;
24685;SDS011;12804;51.176;4.452;2023-05-10T00:43:04;24.25;;;13.45;;
24685;SDS011;12804;51.176;4.452;2023-05-10T00:45:31;22.65;;;14.55;;
24685;SDS011;12804;51.176;4.452;2023-05-10T00:47:58;27.15;;;15.38;;
24685;SDS011;12804;51.176;4.452;2023-05-10T00:50:27;24.05;;;15.45;;
24685;SDS011;12804;51.176;4.452;2023-05-10T00:52:57;21.10;;;14.27;;
24685;SDS011;12804;51.176;4.452;2023-05-10T00:55:25;23.23;;;15.13;;
24685;SDS011;12804;51.176;4.452;2023-05-10T00:57:52;23.92;;;16.10;;
24685;SDS011;12804;51.176;4.452;2023-05-10T01:00:18;27.00;;;16.02;;
24685;SDS011;12804;51.176;4.452;2023-05-10T01:02:45;25.40;;;16.38;;
24685;SDS011;12804;51.176;4.452;2023-05-10T01:05:11;26.60;;;17.17;;
24685;SDS011;12804;51.176;4.452;2023-05-10T01:07:38;27.83;;;16.30;;
24685;SDS011;12804;51.176;4.452;2023-05-10T01:10:05;29.90;;;18.02;;
24685;SDS011;12804;51.176;4.452;2023-05-10T01:12:32;30.45;;;19.05;;
24685;SDS011;12804;51.176;4.452;2023-05-10T01:15:05;29.50;;;18.20;;
24685;SDS011;12804;51.176;4.452;2023-05-10T01:17:33;32.47;;;19.50;;
24685;SDS011;12804;51.176;4.452;2023-05-10T01:20:01;39.60;;;21.20;;
24685;SDS011;12804;51.176;4.452;2023-05-10T01:22:41;33.88;;;20.15;;
24685;SDS011;12804;51.176;4.452;2023-05-10T01:28:22;34.35;;;20.98;;
24685;SDS011;12804;51.176;4.452;2023-05-10T01:31:18;35.70;;;20.75;;
24685;SDS011;12804;51.176;4.452;2023-05-10T01:34:02;31.95;;;20.10;;
24685;SDS011;12804;51.176;4.452;2023-05-10T01:36:43;35.30;;;20.17;;
24685;SDS011;12804;51.176;4.452;2023-05-10T01:39:15;32.50;;;20.23;;
24685;SDS011;12804;51.176;4.452;2023-05-10T01:41:51;37.22;;;22.33;;
24685;SDS011;12804;51.176;4.452;2023-05-10T01:49:56;31.90;;;20.20;;
24685;SDS011;12804;51.176;4.452;2023-05-10T01:52:30;33.83;;;20.08;;
24685;SDS011;12804;51.176;4.452;2023-05-10T01:55:00;29.27;;;18.80;;
24685;SDS011;12804;51.176;4.452;2023-05-10T01:57:33;31.75;;;19.27;;
24685;SDS011;12804;51.176;4.452;2023-05-10T02:00:02;30.20;;;19.38;;
24685;SDS011;12804;51.176;4.452;2023-05-10T02:02:40;30.67;;;18.45;;
24685;SDS011;12804;51.176;4.452;2023-05-10T02:05:10;25.85;;;17.55;;
24685;SDS011;12804;51.176;4.452;2023-05-10T02:07:38;30.48;;;17.35;;
24685;SDS011;12804;51.176;4.452;2023-05-10T02:10:06;32.33;;;17.58;;
24685;SDS011;12804;51.176;4.452;2023-05-10T02:12:39;27.77;;;17.77;;
24685;SDS011;12804;51.176;4.452;2023-05-10T02:15:07;25.85;;;16.50;;
24685;SDS011;12804;51.176;4.452;2023-05-10T02:17:35;31.17;;;17.55;;
24685;SDS011;12804;51.176;4.452;2023-05-10T02:20:04;31.27;;;17.25;;
24685;SDS011;12804;51.176;4.452;2023-05-10T02:22:31;31.05;;;17.35;;
24685;SDS011;12804;51.176;4.452;2023-05-10T02:24:59;25.17;;;16.88;;
24685;SDS011;12804;51.176;4.452;2023-05-10T02:27:27;28.92;;;17.92;;
24685;SDS011;12804;51.176;4.452;2023-05-10T02:29:54;30.38;;;18.25;;
24685;SDS011;12804;51.176;4.452;2023-05-10T02:32:21;30.58;;;18.42;;
24685;SDS011;12804;51.176;4.452;2023-05-10T02:34:49;30.73;;;19.40;;
24685;SDS011;12804;51.176;4.452;2023-05-10T02:37:20;32.60;;;19.48;;
24685;SDS011;12804;51.176;4.452;2023-05-10T02:39:47;31.48;;;19.58;;
24685;SDS011;12804;51.176;4.452;2023-05-10T02:42:16;32.42;;;19.58;;
24685;SDS011;12804;51.176;4.452;2023-05-10T02:44:48;32.00;;;19.35;;
24685;SDS011;12804;51.176;4.452;2023-05-10T02:47:16;32.78;;;19.45;;
24685;SDS011;12804;51.176;4.452;2023-05-10T02:49:43;34.53;;;21.92;;
24685;SDS011;12804;51.176;4.452;2023-05-10T02:52:09;33.95;;;20.90;;
24685;SDS011;12804;51.176;4.452;2023-05-10T02:54:46;37.03;;;22.52;;
24685;SDS011;12804;51.176;4.452;2023-05-10T02:57:16;35.92;;;22.60;;
24685;SDS011;12804;51.176;4.452;2023-05-10T02:59:45;39.90;;;24.67;;
24685;SDS011;12804;51.176;4.452;2023-05-10T03:02:14;45.70;;;25.25;;
24685;SDS011;12804;51.176;4.452;2023-05-10T03:04:40;62.72;;;33.40;;
24685;SDS011;12804;51.176;4.452;2023-05-10T03:07:07;72.22;;;37.13;;
24685;SDS011;12804;51.176;4.452;2023-05-10T03:09:33;97.38;;;45.80;;
24685;SDS011;12804;51.176;4.452;2023-05-10T03:17:29;122.13;;;57.90;;
24685;SDS011;12804;51.176;4.452;2023-05-10T03:20:11;122.00;;;57.35;;
24685;SDS011;12804;51.176;4.452;2023-05-10T03:22:56;108.22;;;53.45;;
24685;SDS011;12804;51.176;4.452;2023-05-10T03:25:29;105.35;;;51.75;;
24685;SDS011;12804;51.176;4.452;2023-05-10T03:27:56;110.35;;;51.65;;
24685;SDS011;12804;51.176;4.452;2023-05-10T03:30:24;89.53;;;44.30;;
24685;SDS011;12804;51.176;4.452;2023-05-10T03:32:51;78.22;;;38.80;;
24685;SDS011;12804;51.176;4.452;2023-05-10T03:35:17;71.38;;;36.03;;
24685;SDS011;12804;51.176;4.452;2023-05-10T03:37:43;61.85;;;33.22;;
24685;SDS011;12804;51.176;4.452;2023-05-10T03:40:09;63.60;;;33.63;;
24685;SDS011;12804;51.176;4.452;2023-05-10T03:42:38;57.30;;;31.10;;
24685;SDS011;12804;51.176;4.452;2023-05-10T03:45:04;59.78;;;31.08;;
24685;SDS011;12804;51.176;4.452;2023-05-10T03:47:31;58.85;;;30.92;;
24685;SDS011;12804;51.176;4.452;2023-05-10T03:49:58;58.20;;;31.85;;
24685;SDS011;12804;51.176;4.452;2023-05-10T03:52:24;61.88;;;32.47;;
24685;SDS011;12804;51.176;4.452;2023-05-10T03:54:50;62.33;;;31.58;;
24685;SDS011;12804;51.176;4.452;2023-05-10T03:57:16;65.63;;;32.85;;
24685;SDS011;12804;51.176;4.452;2023-05-10T03:59:42;65.15;;;32.15;;
24685;SDS011;12804;51.176;4.452;2023-05-10T04:02:08;64.68;;;32.17;;
24685;SDS011;12804;51.176;4.452;2023-05-10T04:04:35;65.90;;;32.20;;
24685;SDS011;12804;51.176;4.452;2023-05-10T04:07:01;63.55;;;32.60;;
24685;SDS011;12804;51.176;4.452;2023-05-10T04:09:27;67.97;;;33.05;;
24685;SDS011;12804;51.176;4.452;2023-05-10T04:11:53;60.45;;;30.65;;
24685;SDS011;12804;51.176;4.452;2023-05-10T04:14:19;65.55;;;32.25;;
24685;SDS011;12804;51.176;4.452;2023-05-10T04:16:45;71.13;;;33.97;;
24685;SDS011;12804;51.176;4.452;2023-05-10T04:19:11;66.90;;;32.70;;
24685;SDS011;12804;51.176;4.452;2023-05-10T04:21:36;63.33;;;30.80;;
24685;SDS011;12804;51.176;4.452;2023-05-10T04:24:02;68.10;;;31.52;;
24685;SDS011;12804;51.176;4.452;2023-05-10T04:26:28;64.72;;;31.05;;
24685;SDS011;12804;51.176;4.452;2023-05-10T04:28:54;68.95;;;32.53;;
24685;SDS011;12804;51.176;4.452;2023-05-10T04:31:20;60.97;;;29.83;;
24685;SDS011;12804;51.176;4.452;2023-05-10T04:33:46;61.17;;;30.52;;
24685;SDS011;12804;51.176;4.452;2023-05-10T04:36:12;55.85;;;28.13;;
24685;SDS011;12804;51.176;4.452;2023-05-10T04:38:38;55.58;;;28.70;;
24685;SDS011;12804;51.176;4.452;2023-05-10T04:41:07;52.03;;;26.70;;
24685;SDS011;12804;51.176;4.452;2023-05-10T04:43:34;51.28;;;25.92;;
24685;SDS011;12804;51.176;4.452;2023-05-10T04:46:01;49.13;;;25.23;;
24685;SDS011;12804;51.176;4.452;2023-05-10T04:48:28;51.75;;;26.17;;
24685;SDS011;12804;51.176;4.452;2023-05-10T04:50:54;55.03;;;25.90;;
24685;SDS011;12804;51.176;4.452;2023-05-10T04:53:20;47.25;;;25.27;;
24685;SDS011;12804;51.176;4.452;2023-05-10T04:55:45;52.80;;;27.17;;
24685;SDS011;12804;51.176;4.452;2023-05-10T04:58:12;48.05;;;25.15;;
24685;SDS011;12804;51.176;4.452;2023-05-10T05:00:37;47.70;;;25.35;;
24685;SDS011;12804;51.176;4.452;2023-05-10T05:03:03;53.08;;;27.55;;
24685;SDS011;12804;51.176;4.452;2023-05-10T05:05:30;50.88;;;27.23;;
24685;SDS011;12804;51.176;4.452;2023-05-10T05:07:56;51.42;;;28.02;;
24685;SDS011;12804;51.176;4.452;2023-05-10T05:10:22;56.15;;;29.33;;
24685;SDS011;12804;51.176;4.452;2023-05-10T05:12:48;52.58;;;27.33;;
24685;SDS011;12804;51.176;4.452;2023-05-10T05:15:14;55.03;;;28.95;;
24685;SDS011;12804;51.176;4.452;2023-05-10T05:17:41;52.63;;;28.40;;
24685;SDS011;12804;51.176;4.452;2023-05-10T05:20:08;52.10;;;28.38;;
24685;SDS011;12804;51.176;4.452;2023-05-10T05:22:38;49.92;;;28.27;;
24685;SDS011;12804;51.176;4.452;2023-05-10T05:25:04;50.70;;;28.58;;
24685;SDS011;12804;51.176;4.452;2023-05-10T05:27:30;50.53;;;28.55;;
24685;SDS011;12804;51.176;4.452;2023-05-10T05:29:57;48.90;;;28.05;;
24685;SDS011;12804;51.176;4.452;2023-05-10T05:32:23;44.35;;;27.98;;
24685;SDS011;12804;51.176;4.452;2023-05-10T05:34:50;45.33;;;27.38;;
24685;SDS011;12804;51.176;4.452;2023-05-10T05:37:19;50.30;;;28.70;;
24685;SDS011;12804;51.176;4.452;2023-05-10T05:39:49;48.70;;;27.73;;
24685;SDS011;12804;51.176;4.452;2023-05-10T05:42:15;45.55;;;27.95;;
24685;SDS011;12804;51.176;4.452;2023-05-10T05:44:42;47.45;;;28.42;;
24685;SDS011;12804;51.176;4.452;2023-05-10T05:47:08;47.95;;;28.88;;
24685;SDS011;12804;51.176;4.452;2023-05-10T05:49:35;51.58;;;30.98;;
24685;SDS011;12804;51.176;4.452;2023-05-10T05:52:01;46.42;;;28.88;;
24685;SDS011;12804;51.176;4.452;2023-05-10T05:54:29;45.72;;;28.38;;
24685;SDS011;12804;51.176;4.452;2023-05-10T05:56:56;41.53;;;26.45;;
24685;SDS011;12804;51.176;4.452;2023-05-10T05:59:22;43.33;;;27.08;;
24685;SDS011;12804;51.176;4.452;2023-05-10T06:01:48;40.13;;;26.27;;
24685;SDS011;12804;51.176;4.452;2023-05-10T06:04:14;36.85;;;24.90;;
24685;SDS011;12804;51.176;4.452;2023-05-10T06:06:40;36.13;;;24.52;;
24685;SDS011;12804;51.176;4.452;2023-05-10T06:09:07;37.28;;;23.23;;
24685;SDS011;12804;51.176;4.452;2023-05-10T06:11:33;35.53;;;23.25;;
24685;SDS011;12804;51.176;4.452;2023-05-10T06:14:00;37.08;;;24.23;;
24685;SDS011;12804;51.176;4.452;2023-05-10T06:16:26;33.85;;;24.02;;
24685;SDS011;12804;51.176;4.452;2023-05-10T06:18:53;33.90;;;22.77;;
24685;SDS011;12804;51.176;4.452;2023-05-10T06:21:18;30.58;;;21.48;;
24685;SDS011;12804;51.176;4.452;2023-05-10T06:23:44;31.15;;;21.42;;
24685;SDS011;12804;51.176;4.452;2023-05-10T06:26:10;34.83;;;22.25;;
24685;SDS011;12804;51.176;4.452;2023-05-10T06:28:36;29.02;;;21.10;;
24685;SDS011;12804;51.176;4.452;2023-05-10T06:31:05;33.38;;;20.85;;
24685;SDS011;12804;51.176;4.452;2023-05-10T06:33:31;31.27;;;22.10;;
24685;SDS011;12804;51.176;4.452;2023-05-10T06:35:58;29.23;;;20.80;;
24685;SDS011;12804;51.176;4.452;2023-05-10T06:38:23;32.60;;;23.20;;
24685;SDS011;12804;51.176;4.452;2023-05-10T06:40:49;40.42;;;26.50;;
24685;SDS011;12804;51.176;4.452;2023-05-10T06:43:15;41.35;;;27.83;;
24685;SDS011;12804;51.176;4.452;2023-05-10T06:45:41;39.72;;;27.77;;
24685;SDS011;12804;51.176;4.452;2023-05-10T06:48:07;38.95;;;27.80;;
24685;SDS011;12804;51.176;4.452;2023-05-10T06:50:33;42.38;;;26.38;;
24685;SDS011;12804;51.176;4.452;2023-05-10T06:52:59;41.33;;;27.63;;
24685;SDS011;12804;51.176;4.452;2023-05-10T06:55:26;40.72;;;26.33;;
24685;SDS011;12804;51.176;4.452;2023-05-10T06:57:53;40.80;;;26.35;;
24685;SDS011;12804;51.176;4.452;2023-05-10T07:00:19;40.38;;;25.98;;
24685;SDS011;12804;51.176;4.452;2023-05-10T07:02:46;39.63;;;27.33;;
24685;SDS011;12804;51.176;4.452;2023-05-10T07:05:12;36.45;;;26.13;;
24685;SDS011;12804;51.176;4.452;2023-05-10T07:07:38;37.13;;;24.10;;
24685;SDS011;12804;51.176;4.452;2023-05-10T07:10:05;38.58;;;25.05;;
24685;SDS011;12804;51.176;4.452;2023-05-10T07:12:31;35.45;;;24.83;;
24685;SDS011;12804;51.176;4.452;2023-05-10T07:14:57;32.88;;;24.20;;
24685;SDS011;12804;51.176;4.452;2023-05-10T07:17:22;33.70;;;24.85;;
24685;SDS011;12804;51.176;4.452;2023-05-10T07:19:48;39.53;;;26.98;;
24685;SDS011;12804;51.176;4.452;2023-05-10T07:22:15;38.75;;;27.13;;
24685;SDS011;12804;51.176;4.452;2023-05-10T07:24:41;35.28;;;26.17;;
24685;SDS011;12804;51.176;4.452;2023-05-10T07:27:08;32.88;;;24.50;;
24685;SDS011;12804;51.176;4.452;2023-05-10T07:29:34;30.23;;;23.38;;
24685;SDS011;12804;51.176;4.452;2023-05-10T07:32:01;31.00;;;23.35;;
24685;SDS011;12804;51.176;4.452;2023-05-10T07:34:26;30.95;;;23.67;;
24685;SDS011;12804;51.176;4.452;2023-05-10T07:36:53;28.98;;;22.65;;
24685;SDS011;12804;51.176;4.452;2023-05-10T07:39:19;30.23;;;22.92;;
24685;SDS011;12804;51.176;4.452;2023-05-10T07:41:48;30.10;;;23.30;;
24685;SDS011;12804;51.176;4.452;2023-05-10T07:44:14;32.25;;;23.88;;
24685;SDS011;12804;51.176;4.452;2023-05-10T07:46:40;34.55;;;23.20;;
24685;SDS011;12804;51.176;4.452;2023-05-10T07:49:05;26.58;;;21.40;;
24685;SDS011;12804;51.176;4.452;2023-05-10T07:51:31;19.40;;;15.25;;
24685;SDS011;12804;51.176;4.452;2023-05-10T07:53:57;21.33;;;15.77;;
24685;SDS011;12804;51.176;4.452;2023-05-10T07:58:51;21.90;;;17.27;;
24685;SDS011;12804;51.176;4.452;2023-05-10T08:01:17;20.50;;;16.77;;
24685;SDS011;12804;51.176;4.452;2023-05-10T08:03:43;23.80;;;18.17;;
24685;SDS011;12804;51.176;4.452;2023-05-10T08:06:09;22.85;;;17.80;;
24685;SDS011;12804;51.176;4.452;2023-05-10T08:08:35;21.42;;;18.05;;
24685;SDS011;12804;51.176;4.452;2023-05-10T08:11:01;24.33;;;19.75;;
24685;SDS011;12804;51.176;4.452;2023-05-10T08:13:27;30.02;;;23.45;;
24685;SDS011;12804;51.176;4.452;2023-05-10T08:15:53;35.33;;;25.48;;
24685;SDS011;12804;51.176;4.452;2023-05-10T08:18:19;28.33;;;22.25;;
24685;SDS011;12804;51.176;4.452;2023-05-10T08:20:45;21.73;;;17.23;;
24685;SDS011;12804;51.176;4.452;2023-05-10T08:23:13;24.17;;;17.95;;
24685;SDS011;12804;51.176;4.452;2023-05-10T08:25:39;28.08;;;20.15;;
24685;SDS011;12804;51.176;4.452;2023-05-10T08:28:05;26.58;;;20.83;;
24685;SDS011;12804;51.176;4.452;2023-05-10T08:30:31;28.02;;;21.05;;
24685;SDS011;12804;51.176;4.452;2023-05-10T08:32:57;25.65;;;19.70;;
24685;SDS011;12804;51.176;4.452;2023-05-10T08:35:23;26.27;;;20.30;;
24685;SDS011;12804;51.176;4.452;2023-05-10T08:37:50;25.65;;;19.92;;
24685;SDS011;12804;51.176;4.452;2023-05-10T08:40:16;26.77;;;21.63;;
24685;SDS011;12804;51.176;4.452;2023-05-10T08:42:49;28.65;;;21.83;;
24685;SDS011;12804;51.176;4.452;2023-05-10T08:45:21;25.60;;;20.83;;
24685;SDS011;12804;51.176;4.452;2023-05-10T08:47:49;27.73;;;21.05;;
24685;SDS011;12804;51.176;4.452;2023-05-10T08:50:17;25.10;;;20.33;;
24685;SDS011;12804;51.176;4.452;2023-05-10T08:52:45;21.80;;;17.98;;
24685;SDS011;12804;51.176;4.452;2023-05-10T08:55:13;22.50;;;17.58;;
24685;SDS011;12804;51.176;4.452;2023-05-10T08:57:40;22.85;;;17.45;;
24685;SDS011;12804;51.176;4.452;2023-05-10T09:00:06;24.20;;;16.80;;
24685;SDS011;12804;51.176;4.452;2023-05-10T09:02:33;23.10;;;17.65;;
24685;SDS011;12804;51.176;4.452;2023-05-10T09:05:00;19.30;;;15.57;;
24685;SDS011;12804;51.176;4.452;2023-05-10T09:07:26;20.95;;;16.27;;
24685;SDS011;12804;51.176;4.452;2023-05-10T09:09:52;19.40;;;15.30;;
24685;SDS011;12804;51.176;4.452;2023-05-10T09:12:19;21.00;;;16.13;;
24685;SDS011;12804;51.176;4.452;2023-05-10T09:14:45;20.88;;;15.68;;
24685;SDS011;12804;51.176;4.452;2023-05-10T09:17:12;19.58;;;15.90;;
24685;SDS011;12804;51.176;4.452;2023-05-10T09:19:38;16.67;;;14.25;;
24685;SDS011;12804;51.176;4.452;2023-05-10T09:22:04;17.85;;;14.73;;
24685;SDS011;12804;51.176;4.452;2023-05-10T09:24:29;22.67;;;15.55;;
24685;SDS011;12804;51.176;4.452;2023-05-10T09:26:56;21.10;;;15.13;;
24685;SDS011;12804;51.176;4.452;2023-05-10T09:29:23;18.83;;;14.25;;
24685;SDS011;12804;51.176;4.452;2023-05-10T09:31:52;22.95;;;14.43;;
24685;SDS011;12804;51.176;4.452;2023-05-10T09:34:31;22.67;;;15.27;;
24685;SDS011;12804;51.176;4.452;2023-05-10T09:36:58;22.33;;;15.00;;
24685;SDS011;12804;51.176;4.452;2023-05-10T09:39:29;21.00;;;14.48;;
24685;SDS011;12804;51.176;4.452;2023-05-10T09:41:59;25.05;;;14.95;;
24685;SDS011;12804;51.176;4.452;2023-05-10T09:44:30;24.75;;;16.27;;
24685;SDS011;12804;51.176;4.452;2023-05-10T09:46:57;23.42;;;14.98;;
24685;SDS011;12804;51.176;4.452;2023-05-10T09:49:23;26.13;;;16.17;;
24685;SDS011;12804;51.176;4.452;2023-05-10T09:54:28;18.77;;;13.90;;
24685;SDS011;12804;51.176;4.452;2023-05-10T09:56:54;18.98;;;12.80;;
24685;SDS011;12804;51.176;4.452;2023-05-10T09:59:20;25.58;;;13.93;;
24685;SDS011;12804;51.176;4.452;2023-05-10T10:01:55;20.40;;;12.68;;
24685;SDS011;12804;51.176;4.452;2023-05-10T10:04:22;25.27;;;13.15;;
24685;SDS011;12804;51.176;4.452;2023-05-10T10:06:58;17.70;;;12.10;;
24685;SDS011;12804;51.176;4.452;2023-05-10T10:09:25;23.92;;;12.93;;
24685;SDS011;12804;51.176;4.452;2023-05-10T10:11:52;20.02;;;12.10;;
24685;SDS011;12804;51.176;4.452;2023-05-10T10:14:19;22.30;;;12.90;;
24685;SDS011;12804;51.176;4.452;2023-05-10T10:16:46;19.95;;;12.80;;
24685;SDS011;12804;51.176;4.452;2023-05-10T10:19:12;22.35;;;12.23;;
24685;SDS011;12804;51.176;4.452;2023-05-10T10:21:38;19.42;;;11.63;;
24685;SDS011;12804;51.176;4.452;2023-05-10T10:24:04;19.88;;;10.88;;
24685;SDS011;12804;51.176;4.452;2023-05-10T10:26:32;20.98;;;12.35;;
24685;SDS011;12804;51.176;4.452;2023-05-10T10:29:04;17.08;;;11.20;;
24685;SDS011;12804;51.176;4.452;2023-05-10T10:34:25;14.48;;;10.82;;
24685;SDS011;12804;51.176;4.452;2023-05-10T10:36:55;18.23;;;11.45;;
24685;SDS011;12804;51.176;4.452;2023-05-10T10:39:23;16.98;;;10.95;;
24685;SDS011;12804;51.176;4.452;2023-05-10T10:41:53;15.90;;;10.70;;
24685;SDS011;12804;51.176;4.452;2023-05-10T10:55:06;14.23;;;11.05;;
24685;SDS011;12804;51.176;4.452;2023-05-10T10:57:43;17.15;;;10.80;;
24685;SDS011;12804;51.176;4.452;2023-05-10T11:03:08;17.20;;;10.77;;
24685;SDS011;12804;51.176;4.452;2023-05-10T11:05:42;19.17;;;10.70;;
24685;SDS011;12804;51.176;4.452;2023-05-10T11:11:04;17.42;;;10.77;;
24685;SDS011;12804;51.176;4.452;2023-05-10T11:13:45;17.80;;;10.57;;
24685;SDS011;12804;51.176;4.452;2023-05-10T11:16:21;14.18;;;10.05;;
24685;SDS011;12804;51.176;4.452;2023-05-10T11:21:18;16.10;;;10.45;;
24685;SDS011;12804;51.176;4.452;2023-05-10T11:26:13;16.15;;;10.55;;
24685;SDS011;12804;51.176;4.452;2023-05-10T11:28:45;16.88;;;10.93;;
24685;SDS011;12804;51.176;4.452;2023-05-10T11:31:18;15.20;;;10.48;;
24685;SDS011;12804;51.176;4.452;2023-05-10T11:33:46;15.13;;;10.40;;
24685;SDS011;12804;51.176;4.452;2023-05-10T11:36:29;14.00;;;11.30;;
24685;SDS011;12804;51.176;4.452;2023-05-10T11:38:58;15.48;;;11.18;;
24685;SDS011;12804;51.176;4.452;2023-05-10T11:41:25;17.17;;;11.68;;
24685;SDS011;12804;51.176;4.452;2023-05-10T11:43:53;21.45;;;11.82;;
24685;SDS011;12804;51.176;4.452;2023-05-10T11:46:21;16.10;;;11.30;;
24685;SDS011;12804;51.176;4.452;2023-05-10T11:48:57;17.05;;;11.65;;
24685;SDS011;12804;51.176;4.452;2023-05-10T11:51:29;16.00;;;11.35;;
24685;SDS011;12804;51.176;4.452;2023-05-10T11:53:58;15.85;;;10.98;;
24685;SDS011;12804;51.176;4.452;2023-05-10T11:56:24;15.23;;;10.48;;
24685;SDS011;12804;51.176;4.452;2023-05-10T11:58:55;14.32;;;11.02;;
24685;SDS011;12804;51.176;4.452;2023-05-10T12:01:22;16.20;;;11.10;;
24685;SDS011;12804;51.176;4.452;2023-05-10T12:03:52;15.23;;;10.27;;
24685;SDS011;12804;51.176;4.452;2023-05-10T12:06:20;12.35;;;10.27;;
24685;SDS011;12804;51.176;4.452;2023-05-10T12:08:48;14.65;;;10.40;;
24685;SDS011;12804;51.176;4.452;2023-05-10T12:11:17;13.18;;;10.65;;
24685;SDS011;12804;51.176;4.452;2023-05-10T12:13:43;42.17;;;12.55;;
24685;SDS011;12804;51.176;4.452;2023-05-10T12:16:13;47.95;;;13.50;;
24685;SDS011;12804;51.176;4.452;2023-05-10T12:18:40;16.88;;;10.30;;
24685;SDS011;12804;51.176;4.452;2023-05-10T12:21:09;34.17;;;13.10;;
24685;SDS011;12804;51.176;4.452;2023-05-10T12:23:38;39.80;;;13.10;;
24685;SDS011;12804;51.176;4.452;2023-05-10T12:26:04;14.20;;;9.82;;
24685;SDS011;12804;51.176;4.452;2023-05-10T12:28:31;15.20;;;10.50;;
24685;SDS011;12804;51.176;4.452;2023-05-10T12:30:58;15.98;;;10.50;;
24685;SDS011;12804;51.176;4.452;2023-05-10T12:33:27;12.02;;;10.30;;
24685;SDS011;12804;51.176;4.452;2023-05-10T12:36:04;13.93;;;10.52;;
24685;SDS011;12804;51.176;4.452;2023-05-10T12:38:32;11.88;;;10.27;;
24685;SDS011;12804;51.176;4.452;2023-05-10T12:41:01;21.33;;;10.18;;
24685;SDS011;12804;51.176;4.452;2023-05-10T12:43:28;14.50;;;10.50;;
24685;SDS011;12804;51.176;4.452;2023-05-10T12:45:55;13.70;;;10.27;;
24685;SDS011;12804;51.176;4.452;2023-05-10T12:48:21;13.82;;;9.75;;
24685;SDS011;12804;51.176;4.452;2023-05-10T12:50:48;14.15;;;9.90;;
24685;SDS011;12804;51.176;4.452;2023-05-10T12:53:14;13.55;;;9.23;;
24685;SDS011;12804;51.176;4.452;2023-05-10T12:55:41;11.50;;;9.60;;
24685;SDS011;12804;51.176;4.452;2023-05-10T12:58:10;13.05;;;9.63;;
24685;SDS011;12804;51.176;4.452;2023-05-10T13:00:36;12.40;;;9.65;;
24685;SDS011;12804;51.176;4.452;2023-05-10T13:03:03;13.60;;;9.85;;
24685;SDS011;12804;51.176;4.452;2023-05-10T13:05:32;14.13;;;10.40;;
24685;SDS011;12804;51.176;4.452;2023-05-10T13:07:58;11.75;;;9.18;;
24685;SDS011;12804;51.176;4.452;2023-05-10T13:10:24;14.05;;;9.77;;
24685;SDS011;12804;51.176;4.452;2023-05-10T13:12:50;9.82;;;8.80;;
24685;SDS011;12804;51.176;4.452;2023-05-10T13:15:16;13.15;;;9.10;;
24685;SDS011;12804;51.176;4.452;2023-05-10T13:17:42;13.55;;;9.65;;
24685;SDS011;12804;51.176;4.452;2023-05-10T13:20:08;12.50;;;9.27;;
24685;SDS011;12804;51.176;4.452;2023-05-10T13:22:35;14.10;;;10.07;;
24685;SDS011;12804;51.176;4.452;2023-05-10T13:25:01;11.98;;;9.40;;
24685;SDS011;12804;51.176;4.452;2023-05-10T13:27:27;11.65;;;10.07;;
24685;SDS011;12804;51.176;4.452;2023-05-10T13:29:53;12.35;;;9.23;;
24685;SDS011;12804;51.176;4.452;2023-05-10T13:32:20;12.77;;;9.95;;
24685;SDS011;12804;51.176;4.452;2023-05-10T13:34:46;13.65;;;9.93;;
24685;SDS011;12804;51.176;4.452;2023-05-10T13:37:12;12.15;;;9.43;;
24685;SDS011;12804;51.176;4.452;2023-05-10T13:39:38;13.88;;;10.13;;
24685;SDS011;12804;51.176;4.452;2023-05-10T13:42:04;13.80;;;9.18;;
24685;SDS011;12804;51.176;4.452;2023-05-10T13:44:30;13.48;;;9.20;;
24685;SDS011;12804;51.176;4.452;2023-05-10T13:46:56;14.48;;;9.90;;
24685;SDS011;12804;51.176;4.452;2023-05-10T13:49:22;13.05;;;9.43;;
24685;SDS011;12804;51.176;4.452;2023-05-10T13:51:48;15.55;;;10.68;;
24685;SDS011;12804;51.176;4.452;2023-05-10T13:54:13;14.63;;;10.98;;
24685;SDS011;12804;51.176;4.452;2023-05-10T13:56:40;14.77;;;10.38;;
24685;SDS011;12804;51.176;4.452;2023-05-10T13:59:07;14.85;;;10.98;;
24685;SDS011;12804;51.176;4.452;2023-05-10T14:01:33;14.00;;;10.60;;
24685;SDS011;12804;51.176;4.452;2023-05-10T14:03:59;14.98;;;10.48;;
24685;SDS011;12804;51.176;4.452;2023-05-10T14:06:25;16.20;;;10.85;;
24685;SDS011;12804;51.176;4.452;2023-05-10T14:08:52;16.33;;;11.68;;
24685;SDS011;12804;51.176;4.452;2023-05-10T14:11:19;15.80;;;12.13;;
24685;SDS011;12804;51.176;4.452;2023-05-10T14:13:45;18.38;;;12.88;;
24685;SDS011;12804;51.176;4.452;2023-05-10T14:16:10;17.80;;;12.32;;
24685;SDS011;12804;51.176;4.452;2023-05-10T14:18:36;16.10;;;12.75;;
24685;SDS011;12804;51.176;4.452;2023-05-10T14:21:03;16.20;;;13.02;;
24685;SDS011;12804;51.176;4.452;2023-05-10T14:23:29;16.17;;;12.32;;
24685;SDS011;12804;51.176;4.452;2023-05-10T14:25:55;18.60;;;13.27;;
24685;SDS011;12804;51.176;4.452;2023-05-10T14:28:21;17.25;;;12.95;;
24685;SDS011;12804;51.176;4.452;2023-05-10T14:30:48;18.33;;;12.63;;
24685;SDS011;12804;51.176;4.452;2023-05-10T14:33:14;16.90;;;12.32;;
24685;SDS011;12804;51.176;4.452;2023-05-10T14:35:41;16.40;;;12.35;;
24685;SDS011;12804;51.176;4.452;2023-05-10T14:38:07;16.38;;;12.68;;
24685;SDS011;12804;51.176;4.452;2023-05-10T14:40:33;17.88;;;12.45;;
24685;SDS011;12804;51.176;4.452;2023-05-10T14:42:59;16.88;;;12.65;;
24685;SDS011;12804;51.176;4.452;2023-05-10T14:45:25;15.43;;;12.68;;
24685;SDS011;12804;51.176;4.452;2023-05-10T14:47:51;17.83;;;13.07;;
24685;SDS011;12804;51.176;4.452;2023-05-10T14:50:17;13.90;;;11.18;;
24685;SDS011;12804;51.176;4.452;2023-05-10T14:52:43;16.20;;;12.80;;
24685;SDS011;12804;51.176;4.452;2023-05-10T14:55:10;16.65;;;12.52;;
24685;SDS011;12804;51.176;4.452;2023-05-10T14:57:35;19.15;;;13.00;;
24685;SDS011;12804;51.176;4.452;2023-05-10T15:00:02;17.50;;;12.90;;
24685;SDS011;12804;51.176;4.452;2023-05-10T15:02:28;15.70;;;12.57;;
24685;SDS011;12804;51.176;4.452;2023-05-10T15:04:56;11.40;;;9.80;;
24685;SDS011;12804;51.176;4.452;2023-05-10T15:07:22;9.85;;;7.93;;
24685;SDS011;12804;51.176;4.452;2023-05-10T15:09:49;9.05;;;6.80;;